Terminal Aerodrome Forecast
Issued by NWS Cleveland, OH

Home | Current Version | Previous Version | Text Only | Print | Product List | Glossary Off
Versions: 1 2 3 4 5 6 7 8 9 10 11 12 13 14 15 16

825
FTUS41 KCLE 211124
TAFYNG
TAF
KYNG 211124Z 2112/2212 14012KT P6SM SCT050 BKN120
     FM211600 18012KT 6SM -SHRA VCTS BKN020 OVC060CB
     FM220500 23008KT P6SM VCSH BKN035
     FM220800 24005KT 6SM BR BKN020=

USA.gov is the U.S. government's official web portal to all federal, state and local government web resources and services.